Time;durP1;ratioP1;P1;durP2;ratioP2;P2;SDS_P1;SDS_P2;PMS_P1;PMS_P2;Temp;Humidity;BMP_temperature;BMP_pressure;BME280_temperature;BME280_humidity;BME280_pressure;Samples;Min_cycle;Max_cycle;Signal;HPM_P1;HPM_P2
2020/12/15 00:00:12;;;;;;;8.27;6.93;;;6.70;99.90;;;;;;5071228;28;20566;-57
2020/12/15 00:02:37;;;;;;;8.57;6.80;;;7.00;99.90;;;;;;5072423;28;20855;-56
2020/12/15 00:05:04;;;;;;;6.90;6.20;;;6.90;99.90;;;;;;5072405;28;20196;-56
2020/12/15 00:07:30;;;;;;;8.18;6.75;;;6.90;99.90;;;;;;5071577;28;20266;-56
2020/12/15 00:09:55;;;;;;;7.00;6.03;;;6.90;99.90;;;;;;5070881;28;20288;-56
2020/12/15 00:12:21;;;;;;;6.70;6.00;;;7.20;99.90;;;;;;5070621;28;20288;-57
2020/12/15 00:14:47;;;;;;;6.63;5.70;;;7.10;99.90;;;;;;5072075;28;20195;-56
2020/12/15 00:17:12;;;;;;;6.40;5.80;;;7.00;99.90;;;;;;5070986;28;20212;-56
2020/12/15 00:19:38;;;;;;;5.77;5.17;;;7.00;99.90;;;;;;5070737;28;20302;-56
2020/12/15 00:22:06;;;;;;;6.20;5.40;;;7.10;99.90;;;;;;5064273;28;20279;-56
2020/12/15 00:24:31;;;;;;;7.53;6.20;;;7.10;99.90;;;;;;5068590;28;20197;-58
2020/12/15 00:26:57;;;;;;;6.97;5.00;;;7.30;99.90;;;;;;5065180;28;20258;-59
2020/12/15 00:29:23;;;;;;;5.85;5.25;;;7.30;99.90;;;;;;5069088;28;20188;-56
2020/12/15 00:31:48;;;;;;;6.17;5.57;;;7.30;99.90;;;;;;5070567;28;20189;-59
2020/12/15 00:34:14;;;;;;;6.67;5.77;;;7.50;99.90;;;;;;5070393;28;20185;-56
2020/12/15 00:36:40;;;;;;;6.57;5.23;;;7.50;99.90;;;;;;5070014;28;20295;-56
2020/12/15 00:39:06;;;;;;;5.87;5.20;;;7.30;99.90;;;;;;5070375;28;20677;-56
2020/12/15 00:41:31;;;;;;;5.82;5.32;;;7.40;99.90;;;;;;5070049;28;20185;-57
2020/12/15 00:43:57;;;;;;;6.00;4.90;;;7.70;99.90;;;;;;5070701;28;20465;-57
2020/12/15 00:46:22;;;;;;;5.70;4.40;;;7.40;99.90;;;;;;5069925;28;20630;-57
2020/12/15 00:48:48;;;;;;;5.97;5.37;;;7.60;99.90;;;;;;5070186;28;20181;-57
2020/12/15 00:51:18;;;;;;;5.13;4.63;;;7.40;99.90;;;;;;5070736;28;20197;-57
2020/12/15 00:53:45;;;;;;;5.03;4.53;;;7.80;99.90;;;;;;5070327;28;20196;-57
2020/12/15 00:56:11;;;;;;;5.15;4.65;;;7.60;99.90;;;;;;5070077;28;20296;-57
2020/12/15 00:58:37;;;;;;;4.72;4.15;;;7.50;99.90;;;;;;5070130;28;20188;-56
2020/12/15 01:01:08;;;;;;;6.67;4.70;;;7.70;99.90;;;;;;5071920;28;20188;-57
2020/12/15 01:03:34;;;;;;;5.90;4.70;;;7.60;99.90;;;;;;5070266;28;20409;-57
2020/12/15 01:06:00;;;;;;;4.57;4.17;;;7.70;99.90;;;;;;5069614;28;20197;-57
2020/12/15 01:08:26;;;;;;;5.83;4.50;;;7.90;99.90;;;;;;5069389;28;20463;-57
2020/12/15 01:10:53;;;;;;;4.93;4.27;;;7.90;99.90;;;;;;5069919;28;20439;-57
2020/12/15 01:13:19;;;;;;;4.90;4.50;;;7.70;99.90;;;;;;5069452;28;20438;-57
2020/12/15 01:15:44;;;;;;;5.70;4.70;;;8.00;99.90;;;;;;5069291;28;20204;-57
2020/12/15 01:18:10;;;;;;;5.57;4.20;;;7.80;99.90;;;;;;5069687;28;20188;-58
2020/12/15 01:20:36;;;;;;;4.93;4.40;;;8.00;99.90;;;;;;5069762;28;20597;-57
2020/12/15 01:23:02;;;;;;;4.40;3.73;;;8.10;99.90;;;;;;5064381;28;20181;-56
2020/12/15 01:25:28;;;;;;;5.60;4.13;;;7.90;99.90;;;;;;5069314;28;20463;-57
2020/12/15 01:27:53;;;;;;;4.30;3.90;;;8.00;99.90;;;;;;5063892;28;20173;-57
2020/12/15 01:30:19;;;;;;;5.90;4.30;;;8.10;99.90;;;;;;5069332;28;20192;-56
2020/12/15 01:32:44;;;;;;;5.43;4.50;;;8.00;99.90;;;;;;5069317;28;20788;-57
2020/12/15 01:35:10;;;;;;;5.50;4.23;;;8.20;99.90;;;;;;5069137;28;20558;-56
2020/12/15 01:37:36;;;;;;;4.83;3.87;;;8.00;99.90;;;;;;5069405;28;20317;-56
2020/12/15 01:40:03;;;;;;;5.17;4.33;;;8.00;99.90;;;;;;5070146;28;20469;-57
2020/12/15 01:42:29;;;;;;;4.63;4.20;;;8.20;99.90;;;;;;5066161;28;20182;-57
2020/12/15 01:44:55;;;;;;;5.20;4.23;;;8.00;99.90;;;;;;5066165;28;20184;-57
2020/12/15 01:47:21;;;;;;;4.70;4.30;;;8.40;99.90;;;;;;5069427;28;20184;-56
2020/12/15 01:49:47;;;;;;;8.43;4.43;;;8.20;99.90;;;;;;5068538;28;20666;-57
2020/12/15 01:52:13;;;;;;;4.67;4.27;;;8.20;99.90;;;;;;5070510;28;20227;-56
2020/12/15 01:54:40;;;;;;;4.53;4.07;;;8.30;99.90;;;;;;5068280;28;20276;-56
2020/12/15 01:57:07;;;;;;;4.82;4.25;;;8.30;99.90;;;;;;5068818;28;20529;-56
2020/12/15 01:59:33;;;;;;;5.20;4.32;;;8.30;99.90;;;;;;5068244;28;20215;-57
2020/12/15 02:01:58;;;;;;;5.70;5.10;;;8.00;99.90;;;;;;5069041;28;20188;-56
2020/12/15 02:04:24;;;;;;;5.17;4.10;;;8.20;99.90;;;;;;5068783;28;20185;-56
2020/12/15 02:06:51;;;;;;;4.47;4.07;;;8.20;99.90;;;;;;5068309;28;20193;-57
2020/12/15 02:09:18;;;;;;;4.97;3.55;;;8.50;99.90;;;;;;5068801;28;20619;-56
2020/12/15 02:11:44;;;;;;;4.40;3.85;;;7.90;99.90;;;;;;5068454;28;20196;-57
2020/12/15 02:14:11;;;;;;;4.28;3.88;;;8.20;99.90;;;;;;5068688;28;20646;-56
2020/12/15 02:16:39;;;;;;;4.75;4.35;;;8.40;99.90;;;;;;5068284;28;20234;-57
2020/12/15 02:19:06;;;;;;;5.07;4.03;;;8.40;99.90;;;;;;5068454;28;20213;-57
2020/12/15 02:21:45;;;;;;;4.60;4.00;;;8.50;99.90;;;;;;5068341;28;20192;-57
2020/12/15 02:24:11;;;;;;;4.85;4.35;;;8.20;99.90;;;;;;5064468;28;20177;-58
2020/12/15 02:26:36;;;;;;;4.27;3.90;;;8.20;99.90;;;;;;5068179;28;20709;-58
2020/12/15 02:29:02;;;;;;;4.77;4.23;;;8.50;99.90;;;;;;5068202;28;20195;-57
2020/12/15 02:31:28;;;;;;;5.67;4.70;;;8.30;99.90;;;;;;5065441;28;20185;-57
2020/12/15 02:33:53;;;;;;;4.70;4.13;;;8.10;99.90;;;;;;5060663;28;20188;-56
2020/12/15 02:36:19;;;;;;;4.50;4.00;;;8.10;99.90;;;;;;5069415;28;20681;-57
2020/12/15 02:38:44;;;;;;;5.53;4.40;;;8.00;99.90;;;;;;5068678;28;20207;-57
2020/12/15 02:41:10;;;;;;;4.43;3.67;;;8.30;99.90;;;;;;5068393;28;20180;-57
2020/12/15 02:43:36;;;;;;;4.40;4.03;;;8.10;99.90;;;;;;5062672;28;20184;-57
2020/12/15 02:46:01;;;;;;;4.57;3.90;;;8.30;99.90;;;;;;5068077;28;20677;-58
2020/12/15 02:48:27;;;;;;;4.97;4.47;;;8.30;99.90;;;;;;5067807;28;20422;-58
2020/12/15 02:50:52;;;;;;;4.43;4.03;;;8.40;99.90;;;;;;5060574;28;20197;-58
2020/12/15 02:53:18;;;;;;;5.23;4.40;;;8.30;99.90;;;;;;5067895;28;20180;-58
2020/12/15 02:55:44;;;;;;;4.83;4.33;;;8.50;99.90;;;;;;5068410;28;20246;-58
2020/12/15 02:58:09;;;;;;;4.77;3.70;;;8.60;99.90;;;;;;5067915;28;20192;-58
2020/12/15 03:00:35;;;;;;;4.13;3.73;;;8.60;99.90;;;;;;5068055;28;20215;-58
2020/12/15 03:03:00;;;;;;;7.40;4.07;;;8.40;99.90;;;;;;5064692;28;20250;-58
2020/12/15 03:05:26;;;;;;;4.50;4.00;;;8.30;99.90;;;;;;5067779;28;20295;-58
2020/12/15 03:07:51;;;;;;;4.87;4.40;;;8.30;99.90;;;;;;5068024;28;20239;-58
2020/12/15 03:10:17;;;;;;;8.30;7.40;;;8.30;99.90;;;;;;5066812;28;20196;-58
2020/12/15 03:12:44;;;;;;;8.80;7.43;;;8.50;99.90;;;;;;5069444;28;20189;-58
2020/12/15 03:15:09;;;;;;;9.40;7.67;;;8.30;99.90;;;;;;5067378;28;20268;-58
2020/12/15 03:17:35;;;;;;;5.20;4.07;;;8.20;99.90;;;;;;5067206;28;20276;-58
2020/12/15 03:20:01;;;;;;;5.17;4.30;;;8.40;99.90;;;;;;5067501;28;20205;-58
2020/12/15 03:22:26;;;;;;;5.77;5.13;;;8.40;99.90;;;;;;5067794;28;20188;-58
2020/12/15 03:24:52;;;;;;;6.43;4.50;;;8.30;99.90;;;;;;5062188;28;20575;-58
2020/12/15 03:27:18;;;;;;;5.00;4.60;;;8.40;99.90;;;;;;5068919;28;20180;-58
2020/12/15 03:29:44;;;;;;;6.35;4.60;;;8.40;99.90;;;;;;5068944;28;20254;-58
2020/12/15 03:32:10;;;;;;;8.20;5.70;;;8.50;99.90;;;;;;5062849;28;20186;-58
2020/12/15 03:34:35;;;;;;;7.10;5.80;;;8.60;99.90;;;;;;5066606;28;20184;-58
2020/12/15 03:37:01;;;;;;;7.17;5.40;;;8.40;99.90;;;;;;5067072;28;20201;-58
2020/12/15 03:39:27;;;;;;;5.87;5.10;;;8.60;99.90;;;;;;5066877;28;20212;-58
2020/12/15 03:41:54;;;;;;;6.47;5.83;;;8.60;99.90;;;;;;5063746;28;20242;-58
2020/12/15 03:44:22;;;;;;;6.18;5.57;;;8.50;99.90;;;;;;5059598;28;20238;-58
2020/12/15 03:46:47;;;;;;;8.90;5.60;;;8.80;99.90;;;;;;5067311;28;20205;-58
2020/12/15 03:49:13;;;;;;;7.37;5.67;;;8.40;99.90;;;;;;5067440;28;20189;-58
2020/12/15 03:51:39;;;;;;;5.47;4.90;;;8.60;99.90;;;;;;5067114;28;20280;-59
2020/12/15 03:54:05;;;;;;;6.10;5.30;;;8.90;99.90;;;;;;5066801;28;20197;-59
2020/12/15 03:56:30;;;;;;;5.20;4.00;;;8.90;99.90;;;;;;5067109;28;20201;-58
2020/12/15 03:58:56;;;;;;;4.10;3.70;;;8.60;99.90;;;;;;5066801;28;20525;-58
2020/12/15 04:01:22;;;;;;;4.40;3.77;;;8.60;99.90;;;;;;5068094;28;20592;-58
2020/12/15 04:03:48;;;;;;;3.75;3.20;;;8.80;99.90;;;;;;5067233;28;20196;-58
2020/12/15 04:06:14;;;;;;;4.20;3.20;;;8.70;99.90;;;;;;5067342;28;20201;-58
2020/12/15 04:08:41;;;;;;;6.80;4.50;;;8.90;99.90;;;;;;5067211;28;20173;-58
2020/12/15 04:11:07;;;;;;;6.82;4.00;;;8.90;99.90;;;;;;5068599;28;20673;-58
2020/12/15 04:13:33;;;;;;;4.93;4.47;;;8.70;99.90;;;;;;5066562;28;20272;-59
2020/12/15 04:15:58;;;;;;;4.40;4.00;;;8.20;99.30;;;;;;5068048;28;20518;-58
2020/12/15 04:18:24;;;;;;;11.20;4.57;;;8.30;99.50;;;;;;5067153;28;20185;-57
2020/12/15 04:20:51;;;;;;;5.07;4.37;;;8.70;99.90;;;;;;5067180;28;20240;-58
2020/12/15 04:23:20;;;;;;;4.55;3.80;;;8.60;99.70;;;;;;5072363;28;20188;-58
2020/12/15 04:25:54;;;;;;;4.95;4.45;;;8.50;99.60;;;;;;5070268;28;20222;-58
2020/12/15 04:28:20;;;;;;;4.78;4.28;;;8.50;99.70;;;;;;5069976;28;20181;-58
2020/12/15 04:30:46;;;;;;;6.03;4.37;;;8.60;99.90;;;;;;5071017;28;20193;-58
2020/12/15 04:33:12;;;;;;;5.10;4.10;;;8.00;99.80;;;;;;5072149;28;20182;-58
2020/12/15 04:35:38;;;;;;;5.60;4.60;;;8.50;99.60;;;;;;5070925;28;20854;-58
2020/12/15 04:38:04;;;;;;;5.07;4.60;;;8.70;99.70;;;;;;5070718;28;20200;-58
2020/12/15 04:40:32;;;;;;;5.70;4.40;;;8.60;99.80;;;;;;5070140;28;20669;-58
2020/12/15 04:43:01;;;;;;;4.82;4.13;;;8.40;99.70;;;;;;5069085;28;20181;-59
2020/12/15 04:45:27;;;;;;;5.57;3.90;;;8.60;99.60;;;;;;5065798;28;20294;-58
2020/12/15 04:48:00;;;;;;;5.63;4.60;;;8.70;99.60;;;;;;5070615;28;20650;-58
2020/12/15 04:50:33;;;;;;;4.35;3.70;;;8.70;99.50;;;;;;5069946;28;21067;-58
2020/12/15 04:53:06;;;;;;;4.10;3.67;;;8.70;99.40;;;;;;5062584;28;20192;-58
2020/12/15 04:55:32;;;;;;;3.67;3.38;;;8.60;99.40;;;;;;5068735;28;20240;-58
2020/12/15 04:58:00;;;;;;;5.50;4.10;;;8.70;99.60;;;;;;5069526;28;20189;-57
2020/12/15 05:00:27;;;;;;;4.85;4.40;;;8.70;99.70;;;;;;5069977;28;20304;-57
2020/12/15 05:02:54;;;;;;;6.40;3.88;;;8.80;99.80;;;;;;5070325;28;20177;-58
2020/12/15 05:05:20;;;;;;;5.05;4.30;;;8.70;99.80;;;;;;5069721;28;20439;-58
2020/12/15 05:07:46;;;;;;;5.20;4.07;;;8.70;99.80;;;;;;5069208;28;20654;-58
2020/12/15 05:10:14;;;;;;;4.25;3.92;;;8.70;99.50;;;;;;5069807;28;20189;-58
2020/12/15 05:12:43;;;;;;;4.95;4.45;;;8.70;99.20;;;;;;5070068;28;20199;-58
2020/12/15 05:15:10;;;;;;;4.53;4.07;;;8.60;99.30;;;;;;5068774;28;20181;-58
2020/12/15 05:17:36;;;;;;;5.28;4.03;;;8.50;99.90;;;;;;5066023;28;20182;-58
2020/12/15 05:20:03;;;;;;;4.50;4.00;;;8.60;99.90;;;;;;5068182;28;20706;-58
2020/12/15 05:22:44;;;;;;;4.88;3.55;;;8.60;99.90;;;;;;5069477;28;20416;-58
2020/12/15 05:25:31;;;;;;;5.97;3.90;;;8.70;99.90;;;;;;5069497;28;20192;-58
2020/12/15 05:28:02;;;;;;;5.72;4.55;;;8.70;99.90;;;;;;5069271;28;20188;-59
2020/12/15 05:30:29;;;;;;;4.45;4.05;;;8.70;99.90;;;;;;5069553;28;20173;-58
2020/12/15 05:32:59;;;;;;;5.57;3.80;;;8.40;99.90;;;;;;5068247;28;20311;-58
2020/12/15 05:35:27;;;;;;;5.40;4.22;;;8.70;99.90;;;;;;5068546;28;20211;-58
2020/12/15 05:37:58;;;;;;;4.93;4.38;;;8.80;99.90;;;;;;5065962;28;20189;-58
2020/12/15 05:40:24;;;;;;;5.22;4.03;;;8.50;99.90;;;;;;5063631;28;20745;-58
2020/12/15 05:43:04;;;;;;;4.68;4.05;;;8.80;99.90;;;;;;5068202;28;20180;-59
2020/12/15 05:45:31;;;;;;;5.18;4.68;;;8.70;99.90;;;;;;5067332;28;20235;-58
2020/12/15 05:48:07;;;;;;;6.45;4.20;;;8.60;99.90;;;;;;5067187;28;20538;-58
2020/12/15 05:50:40;;;;;;;5.43;4.80;;;8.70;99.90;;;;;;5068689;28;20286;-58
2020/12/15 05:53:08;;;;;;;8.57;4.30;;;8.70;99.90;;;;;;5069525;28;20819;-58
2020/12/15 05:55:34;;;;;;;4.72;4.25;;;8.00;99.90;;;;;;5068823;28;20201;-58
2020/12/15 05:58:01;;;;;;;4.40;3.93;;;8.50;99.90;;;;;;5065809;28;20188;-58
2020/12/15 06:00:32;;;;;;;8.38;4.95;;;8.00;99.90;;;;;;5084667;28;20258;-59
2020/12/15 06:03:05;;;;;;;6.53;4.45;;;8.30;99.90;;;;;;5069574;28;20185;-60
2020/12/15 06:05:36;;;;;;;4.65;3.92;;;8.60;99.90;;;;;;5067229;28;20800;-59
2020/12/15 06:08:06;;;;;;;4.38;3.83;;;8.80;99.90;;;;;;5068605;28;20189;-59
2020/12/15 06:10:34;;;;;;;7.43;5.20;;;8.60;99.90;;;;;;5067857;28;20732;-60
2020/12/15 06:13:01;;;;;;;4.45;4.03;;;8.50;99.90;;;;;;5067709;28;20210;-58
2020/12/15 06:15:28;;;;;;;5.22;4.70;;;8.70;99.90;;;;;;5067903;28;20686;-59
2020/12/15 06:18:02;;;;;;;5.32;4.22;;;8.60;99.90;;;;;;5068762;28;20195;-58
2020/12/15 06:20:35;;;;;;;6.75;5.40;;;8.70;99.90;;;;;;5068350;28;20204;-58
2020/12/15 06:23:02;;;;;;;6.25;4.10;;;8.30;99.90;;;;;;5065881;28;20189;-59
2020/12/15 06:25:31;;;;;;;4.60;3.47;;;8.60;99.90;;;;;;5068047;28;20234;-58
2020/12/15 06:28:01;;;;;;;6.97;4.20;;;9.10;99.90;;;;;;5069036;28;20184;-59
2020/12/15 06:30:37;;;;;;;8.27;4.60;;;8.80;99.90;;;;;;5056739;28;20189;-59
2020/12/15 06:33:05;;;;;;;4.22;3.40;;;8.80;99.90;;;;;;5063270;28;20200;-58
2020/12/15 06:35:32;;;;;;;6.63;4.68;;;8.80;99.90;;;;;;5069221;28;20246;-58
2020/12/15 06:37:58;;;;;;;7.15;4.55;;;8.80;99.90;;;;;;5067650;28;20530;-58
2020/12/15 06:40:24;;;;;;;3.95;3.55;;;8.80;99.90;;;;;;5067577;28;20627;-58
2020/12/15 06:42:53;;;;;;;6.30;4.83;;;8.90;99.90;;;;;;5067002;28;20435;-58
2020/12/15 06:45:23;;;;;;;5.10;4.20;;;8.30;99.90;;;;;;5076574;28;20955;-57
2020/12/15 06:47:59;;;;;;;6.03;4.57;;;8.60;99.90;;;;;;5065085;28;20189;-59
2020/12/15 06:50:25;;;;;;;5.72;5.22;;;8.70;99.90;;;;;;5080541;28;20185;-58
2020/12/15 06:52:52;;;;;;;5.72;4.55;;;9.00;99.90;;;;;;5066484;28;20646;-59
2020/12/15 06:55:28;;;;;;;7.70;4.90;;;9.20;99.90;;;;;;5067041;28;20731;-58
2020/12/15 06:57:59;;;;;;;5.07;4.57;;;9.20;99.90;;;;;;5066697;28;20717;-59
2020/12/15 07:00:36;;;;;;;5.60;5.10;;;9.20;99.90;;;;;;5066444;28;20212;-59
2020/12/15 07:03:02;;;;;;;5.85;4.40;;;9.20;99.90;;;;;;5064876;28;20188;-58
2020/12/15 07:05:28;;;;;;;5.80;5.30;;;9.20;99.90;;;;;;5067130;28;20205;-57
2020/12/15 07:07:56;;;;;;;8.85;5.32;;;9.20;99.90;;;;;;5063941;28;20262;-57
2020/12/15 07:10:25;;;;;;;6.53;5.78;;;9.20;99.90;;;;;;5080763;28;20181;-58
2020/12/15 07:12:51;;;;;;;6.75;5.65;;;9.20;99.90;;;;;;5066830;28;20189;-58
2020/12/15 07:15:17;;;;;;;7.97;6.05;;;8.80;99.90;;;;;;5065429;28;20227;-58
2020/12/15 07:17:45;;;;;;;8.40;4.93;;;8.80;99.90;;;;;;5066729;28;20188;-58
2020/12/15 07:20:11;;;;;;;6.18;4.90;;;9.00;99.90;;;;;;5063459;28;20205;-58
2020/12/15 07:22:36;;;;;;;10.10;5.40;;;8.90;99.90;;;;;;5062156;28;20559;-59
2020/12/15 07:25:03;;;;;;;6.97;5.67;;;8.80;99.90;;;;;;5063542;28;20197;-59
2020/12/15 07:27:31;;;;;;;5.57;4.45;;;8.70;99.90;;;;;;5065595;28;20723;-58
2020/12/15 07:29:58;;;;;;;6.30;5.50;;;9.00;99.90;;;;;;5063641;28;20219;-58
2020/12/15 07:32:24;;;;;;;7.40;5.95;;;9.10;99.90;;;;;;5060921;28;20220;-59
2020/12/15 07:35:08;;;;;;;6.65;5.05;;;9.00;99.90;;;;;;5061091;28;20189;-57
2020/12/15 07:37:37;;;;;;;7.05;5.78;;;8.90;99.90;;;;;;5064155;28;20219;-58
2020/12/15 07:40:05;;;;;;;10.90;5.53;;;9.00;99.90;;;;;;5082033;28;20213;-58
2020/12/15 07:42:31;;;;;;;5.68;4.55;;;9.00;99.90;;;;;;5065439;28;20450;-58
2020/12/15 07:44:59;;;;;;;9.10;4.80;;;9.30;99.90;;;;;;5064967;28;20438;-58
2020/12/15 07:47:25;;;;;;;6.90;5.20;;;9.30;99.90;;;;;;5066557;28;20177;-58
2020/12/15 07:49:56;;;;;;;5.80;4.40;;;9.00;99.90;;;;;;5065014;28;20203;-58
2020/12/15 07:52:32;;;;;;;9.63;5.50;;;9.20;99.90;;;;;;5065637;28;20225;-58
2020/12/15 07:55:16;;;;;;;12.02;5.75;;;9.30;99.90;;;;;;5065503;28;20189;-58
2020/12/15 07:57:42;;;;;;;8.48;6.47;;;9.20;99.90;;;;;;5061724;28;20272;-60
2020/12/15 08:00:12;;;;;;;5.53;4.95;;;9.10;99.90;;;;;;5085856;28;20256;-60
2020/12/15 08:02:39;;;;;;;6.63;4.97;;;9.20;99.90;;;;;;5064523;28;20204;-60
2020/12/15 08:05:06;;;;;;;5.03;4.53;;;9.20;99.90;;;;;;5073197;28;20185;-60
2020/12/15 08:07:42;;;;;;;6.50;5.40;;;9.10;99.90;;;;;;5068199;28;20697;-61
2020/12/15 08:10:07;;;;;;;6.05;5.35;;;9.40;99.90;;;;;;5067966;28;20201;-60
2020/12/15 08:12:33;;;;;;;8.53;5.73;;;9.50;99.90;;;;;;5068958;28;20203;-60
2020/12/15 08:15:00;;;;;;;6.43;5.38;;;9.60;99.90;;;;;;5067493;28;20719;-60
2020/12/15 08:17:29;;;;;;;6.43;5.05;;;9.20;99.90;;;;;;5071401;28;20235;-61
2020/12/15 08:20:02;;;;;;;7.15;5.00;;;9.10;99.90;;;;;;5069019;28;20208;-60
2020/12/15 08:22:27;;;;;;;6.63;5.28;;;9.20;99.90;;;;;;5069338;28;20207;-62
2020/12/15 08:24:56;;;;;;;5.40;4.90;;;9.20;99.90;;;;;;5068101;28;20185;-61
2020/12/15 08:27:25;;;;;;;8.60;4.78;;;9.40;99.90;;;;;;5072024;28;20642;-59
2020/12/15 08:29:52;;;;;;;11.55;5.95;;;9.60;99.90;;;;;;5086835;28;20239;-60
2020/12/15 08:32:29;;;;;;;8.77;6.65;;;9.20;99.90;;;;;;5071916;28;20280;-60
2020/12/15 08:35:02;;;;;;;9.60;5.82;;;9.40;99.90;;;;;;5086456;28;20393;-59
2020/12/15 08:37:29;;;;;;;6.90;5.85;;;9.50;99.90;;;;;;5062454;28;20181;-59
2020/12/15 08:39:55;;;;;;;9.85;6.53;;;9.40;99.90;;;;;;5069472;28;20234;-59
2020/12/15 08:42:21;;;;;;;7.57;5.63;;;9.60;99.90;;;;;;5068206;28;20269;-59
2020/12/15 08:44:47;;;;;;;6.32;5.30;;;9.50;99.90;;;;;;5070644;28;20231;-59
2020/12/15 08:47:22;;;;;;;9.80;5.85;;;9.70;99.90;;;;;;5065839;28;20201;-60
2020/12/15 08:49:52;;;;;;;7.43;5.80;;;9.50;99.90;;;;;;5068337;28;20191;-60
2020/12/15 08:52:22;;;;;;;6.85;5.20;;;9.50;99.90;;;;;;5067669;28;20192;-60
2020/12/15 08:54:47;;;;;;;10.05;6.07;;;9.40;99.90;;;;;;5066166;28;20193;-60
2020/12/15 08:57:15;;;;;;;7.90;5.87;;;9.70;99.90;;;;;;5070622;28;20856;-60
2020/12/15 08:59:41;;;;;;;6.35;5.55;;;9.50;99.90;;;;;;5067955;28;20266;-59
2020/12/15 09:02:08;;;;;;;9.70;6.43;;;9.80;99.90;;;;;;5068688;28;20181;-58
2020/12/15 09:04:34;;;;;;;10.25;5.65;;;9.80;99.90;;;;;;5069735;28;20185;-57
2020/12/15 09:07:10;;;;;;;7.67;5.60;;;10.00;99.90;;;;;;5072148;28;20212;-58
2020/12/15 09:09:36;;;;;;;7.93;5.60;;;9.90;99.90;;;;;;5067451;28;20196;-58
2020/12/15 09:12:02;;;;;;;6.53;5.20;;;9.90;99.90;;;;;;5067301;28;20550;-58
2020/12/15 09:14:27;;;;;;;5.97;5.37;;;9.60;99.90;;;;;;5068541;28;20642;-59
2020/12/15 09:16:53;;;;;;;5.60;5.00;;;9.60;99.90;;;;;;5068747;28;20200;-60
2020/12/15 09:19:23;;;;;;;7.07;4.87;;;9.70;99.90;;;;;;5067952;28;20648;-59
2020/12/15 09:22:04;;;;;;;9.25;5.43;;;9.80;99.90;;;;;;5085208;28;20184;-59
2020/12/15 09:24:33;;;;;;;11.35;9.00;;;9.90;99.80;;;;;;5065195;28;20280;-59
2020/12/15 09:26:58;;;;;;;5.18;4.68;;;10.20;99.20;;;;;;5066955;28;20215;-60
2020/12/15 09:29:27;;;;;;;5.50;5.00;;;10.10;99.10;;;;;;5067076;28;20614;-61
2020/12/15 09:31:54;;;;;;;6.85;5.65;;;10.00;99.40;;;;;;5057077;28;20681;-60
2020/12/15 09:34:21;;;;;;;5.40;4.90;;;10.30;98.80;;;;;;5066967;28;20188;-57
2020/12/15 09:36:58;;;;;;;6.72;5.50;;;10.10;98.70;;;;;;5083219;28;20201;-57
2020/12/15 09:39:26;;;;;;;6.38;5.88;;;10.10;98.70;;;;;;5067642;28;20285;-57
2020/12/15 09:41:52;;;;;;;7.93;7.10;;;10.20;98.80;;;;;;5067271;28;20185;-57
2020/12/15 09:44:17;;;;;;;8.30;7.40;;;10.20;98.70;;;;;;5063982;28;20654;-57
2020/12/15 09:46:43;;;;;;;10.60;9.00;;;10.50;98.80;;;;;;5065344;28;20205;-57
2020/12/15 09:49:08;;;;;;;13.03;10.00;;;10.50;98.80;;;;;;5068405;28;20544;-57
2020/12/15 09:51:34;;;;;;;9.30;7.90;;;10.40;98.80;;;;;;5067890;28;20185;-57
2020/12/15 09:54:00;;;;;;;8.40;7.07;;;10.40;99.10;;;;;;5067598;28;20181;-57
2020/12/15 09:56:26;;;;;;;11.30;7.37;;;10.30;99.20;;;;;;5067533;28;20211;-57
2020/12/15 09:58:53;;;;;;;6.88;6.18;;;10.20;99.10;;;;;;5066741;28;20548;-57
2020/12/15 10:01:18;;;;;;;9.50;6.40;;;10.30;98.70;;;;;;5067843;28;20302;-59
2020/12/15 10:03:44;;;;;;;7.40;6.17;;;10.40;98.60;;;;;;5083467;28;20221;-57
2020/12/15 10:06:15;;;;;;;6.73;5.70;;;10.60;98.50;;;;;;5068462;28;20665;-56
2020/12/15 10:08:40;;;;;;;8.23;6.05;;;10.50;98.10;;;;;;5067165;28;20306;-56
2020/12/15 10:11:06;;;;;;;6.83;6.13;;;10.30;97.90;;;;;;5068273;28;20638;-57
2020/12/15 10:13:31;;;;;;;6.03;5.47;;;10.70;98.10;;;;;;5067358;28;20188;-56
2020/12/15 10:15:57;;;;;;;6.57;5.87;;;10.80;97.90;;;;;;5066405;28;20574;-57
2020/12/15 10:18:23;;;;;;;6.93;5.73;;;10.40;98.00;;;;;;5067105;28;20276;-57
2020/12/15 10:20:49;;;;;;;6.80;6.07;;;10.40;98.00;;;;;;5069560;28;20197;-57
2020/12/15 10:23:14;;;;;;;7.60;6.27;;;10.70;98.40;;;;;;5067408;28;20414;-57
2020/12/15 10:25:41;;;;;;;7.43;5.80;;;10.70;98.00;;;;;;5065163;28;20209;-57
2020/12/15 10:28:09;;;;;;;6.63;5.80;;;10.80;97.70;;;;;;5067377;28;20281;-57
2020/12/15 10:30:35;;;;;;;5.88;5.22;;;10.70;97.80;;;;;;5066817;28;20181;-57
2020/12/15 10:33:01;;;;;;;8.60;6.07;;;10.90;97.70;;;;;;5069127;28;20182;-56
2020/12/15 10:35:26;;;;;;;8.37;6.60;;;10.90;97.90;;;;;;5065901;28;20459;-57
2020/12/15 10:37:52;;;;;;;6.60;6.00;;;11.10;97.10;;;;;;5065763;28;20644;-57
2020/12/15 10:40:17;;;;;;;6.73;5.90;;;11.20;97.10;;;;;;5067601;28;20299;-57
2020/12/15 10:42:44;;;;;;;8.20;5.97;;;11.50;96.90;;;;;;5063458;28;20185;-59
2020/12/15 10:45:09;;;;;;;6.45;5.82;;;11.30;96.80;;;;;;5066862;28;20213;-58
2020/12/15 10:47:35;;;;;;;9.77;6.70;;;11.40;96.80;;;;;;5066471;28;20650;-58
2020/12/15 10:50:01;;;;;;;7.27;6.27;;;11.40;96.40;;;;;;5066406;28;20210;-59
2020/12/15 10:52:26;;;;;;;7.80;6.57;;;11.40;96.50;;;;;;5066275;28;20188;-57
2020/12/15 10:54:52;;;;;;;11.27;7.20;;;11.30;96.50;;;;;;5081860;28;20182;-58
2020/12/15 10:57:21;;;;;;;9.50;6.50;;;11.20;96.60;;;;;;5064041;28;20216;-58
2020/12/15 10:59:47;;;;;;;8.00;6.95;;;11.40;96.90;;;;;;5065391;28;20216;-58
2020/12/15 11:02:13;;;;;;;7.90;6.80;;;11.50;96.90;;;;;;5062454;28;20238;-57
2020/12/15 11:04:39;;;;;;;11.20;7.30;;;11.60;97.00;;;;;;5075278;28;20181;-57
2020/12/15 11:07:04;;;;;;;8.07;6.87;;;11.70;96.90;;;;;;5065661;28;20202;-58
2020/12/15 11:09:30;;;;;;;8.10;6.87;;;11.40;96.70;;;;;;5053845;28;20598;-57
2020/12/15 11:11:55;;;;;;;8.87;6.10;;;11.50;96.90;;;;;;5066538;28;20780;-57
2020/12/15 11:14:21;;;;;;;8.07;6.67;;;11.50;96.90;;;;;;5066490;28;20201;-58
2020/12/15 11:16:47;;;;;;;10.20;6.57;;;11.80;97.00;;;;;;5066703;28;20678;-57
2020/12/15 11:19:13;;;;;;;6.30;5.70;;;11.70;97.00;;;;;;5067006;28;20455;-57
2020/12/15 11:21:38;;;;;;;7.83;6.33;;;11.70;97.20;;;;;;5063177;28;20666;-57
2020/12/15 11:24:04;;;;;;;6.33;5.73;;;11.50;97.40;;;;;;5063919;28;20640;-57
2020/12/15 11:26:29;;;;;;;9.50;5.97;;;11.60;97.90;;;;;;5065542;28;20201;-58
2020/12/15 11:28:55;;;;;;;8.73;6.70;;;11.60;98.00;;;;;;5065752;28;20208;-58
2020/12/15 11:31:21;;;;;;;9.93;7.35;;;11.60;98.50;;;;;;5050844;28;20285;-59
2020/12/15 11:33:47;;;;;;;7.07;6.37;;;11.10;99.40;;;;;;5066160;28;20688;-60
2020/12/15 11:36:15;;;;;;;8.90;6.40;;;11.50;99.60;;;;;;5070186;28;21547;-60
2020/12/15 11:38:44;;;;;;;7.55;6.07;;;11.60;99.40;;;;;;5069410;28;20220;-61
2020/12/15 11:41:10;;;;;;;6.88;6.10;;;11.50;99.50;;;;;;5070589;28;20612;-60
2020/12/15 11:43:37;;;;;;;8.13;7.32;;;11.50;99.70;;;;;;5070019;28;20186;-61
2020/12/15 11:46:03;;;;;;;7.68;6.93;;;11.50;99.90;;;;;;5069590;28;20241;-61
2020/12/15 11:48:28;;;;;;;12.40;9.40;;;11.70;99.90;;;;;;5068960;28;20217;-60
2020/12/15 11:50:54;;;;;;;10.03;7.93;;;11.70;99.90;;;;;;5069536;28;20181;-61
2020/12/15 11:53:19;;;;;;;7.60;6.63;;;11.60;99.90;;;;;;5070607;28;20184;-61
2020/12/15 11:55:45;;;;;;;6.73;6.10;;;11.70;99.90;;;;;;5068902;28;20274;-60
2020/12/15 11:58:11;;;;;;;8.13;5.80;;;11.90;99.90;;;;;;5070951;28;20273;-60
2020/12/15 12:00:36;;;;;;;6.87;6.27;;;11.80;99.80;;;;;;5075417;28;20239;-60
2020/12/15 12:03:02;;;;;;;8.83;7.57;;;11.90;99.70;;;;;;5069175;28;20193;-60
2020/12/15 12:05:28;;;;;;;8.60;7.70;;;11.90;99.90;;;;;;5067265;28;20206;-61
2020/12/15 12:07:54;;;;;;;9.47;7.07;;;12.10;99.90;;;;;;5068650;28;20507;-60
2020/12/15 12:10:19;;;;;;;8.23;7.00;;;11.90;99.90;;;;;;5070131;28;20179;-61
2020/12/15 12:12:45;;;;;;;7.20;5.83;;;12.10;99.90;;;;;;5072829;28;20213;-60
2020/12/15 12:15:11;;;;;;;8.50;7.00;;;12.20;99.90;;;;;;5069965;28;20468;-60
2020/12/15 12:17:36;;;;;;;9.27;6.87;;;12.10;99.90;;;;;;5068791;28;20182;-60
2020/12/15 12:20:03;;;;;;;9.50;6.53;;;12.20;99.90;;;;;;5072409;28;20727;-60
2020/12/15 12:22:29;;;;;;;9.23;6.82;;;12.40;99.90;;;;;;5068026;28;20666;-60
2020/12/15 12:24:55;;;;;;;8.97;5.63;;;12.50;99.90;;;;;;5069542;28;20194;-60
2020/12/15 12:27:20;;;;;;;7.87;6.00;;;12.40;99.90;;;;;;5067285;28;20191;-60
2020/12/15 12:29:46;;;;;;;7.17;5.90;;;12.20;99.90;;;;;;5069985;28;20196;-60
2020/12/15 12:32:12;;;;;;;7.23;6.53;;;12.20;99.90;;;;;;5069309;28;21160;-60
2020/12/15 12:34:38;;;;;;;6.17;5.57;;;12.40;99.90;;;;;;5069601;28;20277;-60
2020/12/15 12:37:07;;;;;;;5.85;5.25;;;12.60;99.90;;;;;;5084854;28;20263;-60
2020/12/15 12:39:35;;;;;;;7.97;6.70;;;12.40;99.90;;;;;;5063939;28;20205;-60
2020/12/15 12:42:01;;;;;;;4.72;4.32;;;12.50;99.90;;;;;;5064875;28;20181;-60
2020/12/15 12:44:27;;;;;;;5.65;5.00;;;12.40;99.90;;;;;;5063993;28;20187;-60
2020/12/15 12:46:53;;;;;;;7.63;5.50;;;12.40;99.20;;;;;;5065348;28;20661;-60
2020/12/15 12:49:19;;;;;;;5.63;5.13;;;12.20;99.20;;;;;;5069032;28;20235;-61
2020/12/15 12:51:45;;;;;;;6.47;5.87;;;12.10;99.50;;;;;;5068874;28;20191;-60